sensor_id;sensor_type;location;lat;lon;timestamp;temperature;humidity
1411;DHT22;700;51.906;8.404;2023-03-01T00:01:57;2.80;99.90
1411;DHT22;700;51.906;8.404;2023-03-01T00:06:58;2.70;99.90
1411;DHT22;700;51.906;8.404;2023-03-01T00:12:01;2.70;99.90
1411;DHT22;700;51.906;8.404;2023-03-01T00:17:01;2.70;99.90
1411;DHT22;700;51.906;8.404;2023-03-01T00:22:02;3.10;99.90
1411;DHT22;700;51.906;8.404;2023-03-01T00:27:03;3.10;99.90
1411;DHT22;700;51.906;8.404;2023-03-01T00:32:03;3.10;99.90
1411;DHT22;700;51.906;8.404;2023-03-01T00:37:04;2.80;99.90
1411;DHT22;700;51.906;8.404;2023-03-01T00:42:07;2.60;99.90
1411;DHT22;700;51.906;8.404;2023-03-01T00:47:08;2.60;99.90
1411;DHT22;700;51.906;8.404;2023-03-01T00:52:11;2.40;99.90
1411;DHT22;700;51.906;8.404;2023-03-01T00:57:12;2.40;99.90
1411;DHT22;700;51.906;8.404;2023-03-01T01:02:12;2.30;99.90
1411;DHT22;700;51.906;8.404;2023-03-01T01:07:14;2.30;99.90
1411;DHT22;700;51.906;8.404;2023-03-01T01:12:17;2.40;99.90
1411;DHT22;700;51.906;8.404;2023-03-01T01:17:17;2.40;99.90
1411;DHT22;700;51.906;8.404;2023-03-01T01:22:18;2.40;99.90
1411;DHT22;700;51.906;8.404;2023-03-01T01:27:19;2.10;99.90
1411;DHT22;700;51.906;8.404;2023-03-01T01:32:22;2.10;99.90
1411;DHT22;700;51.906;8.404;2023-03-01T01:37:22;2.10;99.90
1411;DHT22;700;51.906;8.404;2023-03-01T01:42:23;2.20;99.90
1411;DHT22;700;51.906;8.404;2023-03-01T01:47:24;2.20;99.90
1411;DHT22;700;51.906;8.404;2023-03-01T01:52:27;2.40;99.90
1411;DHT22;700;51.906;8.404;2023-03-01T01:57:38;2.60;99.90
1411;DHT22;700;51.906;8.404;2023-03-01T02:02:40;2.40;99.90
1411;DHT22;700;51.906;8.404;2023-03-01T02:07:43;2.20;99.90
1411;DHT22;700;51.906;8.404;2023-03-01T02:12:47;2.40;99.90
1411;DHT22;700;51.906;8.404;2023-03-01T02:17:47;2.20;99.90
1411;DHT22;700;51.906;8.404;2023-03-01T02:22:48;2.10;99.90
1411;DHT22;700;51.906;8.404;2023-03-01T02:33:02;2.10;99.90
1411;DHT22;700;51.906;8.404;2023-03-01T02:38:07;2.20;99.90
1411;DHT22;700;51.906;8.404;2023-03-01T02:43:10;2.30;99.90
1411;DHT22;700;51.906;8.404;2023-03-01T02:48:12;2.10;99.90
1411;DHT22;700;51.906;8.404;2023-03-01T02:53:23;2.20;99.90
1411;DHT22;700;51.906;8.404;2023-03-01T02:58:28;2.10;99.90
1411;DHT22;700;51.906;8.404;2023-03-01T03:03:31;2.00;99.90
1411;DHT22;700;51.906;8.404;2023-03-01T03:08:31;2.00;99.90
1411;DHT22;700;51.906;8.404;2023-03-01T03:13:32;1.90;99.90
1411;DHT22;700;51.906;8.404;2023-03-01T03:18:35;2.00;99.90
1411;DHT22;700;51.906;8.404;2023-03-01T03:23:36;2.20;99.90
1411;DHT22;700;51.906;8.404;2023-03-01T03:28:37;2.10;99.90
1411;DHT22;700;51.906;8.404;2023-03-01T03:33:42;2.20;99.90
1411;DHT22;700;51.906;8.404;2023-03-01T03:38:43;2.00;99.90
1411;DHT22;700;51.906;8.404;2023-03-01T03:43:44;1.80;99.90
1411;DHT22;700;51.906;8.404;2023-03-01T03:48:45;2.10;99.90
1411;DHT22;700;51.906;8.404;2023-03-01T03:53:46;2.10;99.90
1411;DHT22;700;51.906;8.404;2023-03-01T03:58:49;2.00;99.90
1411;DHT22;700;51.906;8.404;2023-03-01T04:03:49;1.80;99.90
1411;DHT22;700;51.906;8.404;2023-03-01T04:08:56;2.00;99.90
1411;DHT22;700;51.906;8.404;2023-03-01T04:13:59;2.00;99.90
1411;DHT22;700;51.906;8.404;2023-03-01T04:19:00;1.90;99.90
1411;DHT22;700;51.906;8.404;2023-03-01T04:24:03;1.70;99.90
1411;DHT22;700;51.906;8.404;2023-03-01T04:29:07;1.50;99.90
1411;DHT22;700;51.906;8.404;2023-03-01T04:34:07;1.60;99.90
1411;DHT22;700;51.906;8.404;2023-03-01T04:39:08;1.50;99.90
1411;DHT22;700;51.906;8.404;2023-03-01T04:44:12;1.60;99.90
1411;DHT22;700;51.906;8.404;2023-03-01T04:49:13;1.60;99.90
1411;DHT22;700;51.906;8.404;2023-03-01T04:54:13;1.60;99.90
1411;DHT22;700;51.906;8.404;2023-03-01T04:59:16;1.40;99.90
1411;DHT22;700;51.906;8.404;2023-03-01T05:04:17;1.40;99.90
1411;DHT22;700;51.906;8.404;2023-03-01T05:09:18;1.40;99.90
1411;DHT22;700;51.906;8.404;2023-03-01T05:14:18;1.40;99.90
1411;DHT22;700;51.906;8.404;2023-03-01T05:19:24;1.50;99.90
1411;DHT22;700;51.906;8.404;2023-03-01T05:24:28;1.30;99.90
1411;DHT22;700;51.906;8.404;2023-03-01T05:29:32;1.10;99.90
1411;DHT22;700;51.906;8.404;2023-03-01T05:34:36;1.10;99.90
1411;DHT22;700;51.906;8.404;2023-03-01T05:39:37;1.20;99.90
1411;DHT22;700;51.906;8.404;2023-03-01T05:44:39;1.20;99.90
1411;DHT22;700;51.906;8.404;2023-03-01T05:49:43;1.20;99.90
1411;DHT22;700;51.906;8.404;2023-03-01T05:54:45;1.30;99.90
1411;DHT22;700;51.906;8.404;2023-03-01T05:59:51;1.30;99.90
1411;DHT22;700;51.906;8.404;2023-03-01T06:04:53;1.30;99.90
1411;DHT22;700;51.906;8.404;2023-03-01T06:09:57;1.40;99.90
1411;DHT22;700;51.906;8.404;2023-03-01T06:15:00;1.30;99.90
1411;DHT22;700;51.906;8.404;2023-03-01T06:20:01;1.40;99.90
1411;DHT22;700;51.906;8.404;2023-03-01T06:25:05;1.40;99.90
1411;DHT22;700;51.906;8.404;2023-03-01T06:30:08;1.40;99.90
1411;DHT22;700;51.906;8.404;2023-03-01T06:35:11;1.50;99.90
1411;DHT22;700;51.906;8.404;2023-03-01T06:40:12;1.60;99.90
1411;DHT22;700;51.906;8.404;2023-03-01T06:45:18;1.60;99.90
1411;DHT22;700;51.906;8.404;2023-03-01T06:50:19;1.90;99.90
1411;DHT22;700;51.906;8.404;2023-03-01T06:55:19;2.40;99.90
1411;DHT22;700;51.906;8.404;2023-03-01T07:00:20;2.50;99.90
1411;DHT22;700;51.906;8.404;2023-03-01T07:05:25;2.80;99.90
1411;DHT22;700;51.906;8.404;2023-03-01T07:10:28;3.00;99.90
1411;DHT22;700;51.906;8.404;2023-03-01T07:15:29;3.20;99.90
1411;DHT22;700;51.906;8.404;2023-03-01T07:20:29;3.90;99.90
1411;DHT22;700;51.906;8.404;2023-03-01T07:25:30;4.50;99.90
1411;DHT22;700;51.906;8.404;2023-03-01T07:30:35;5.10;99.90
1411;DHT22;700;51.906;8.404;2023-03-01T07:35:39;6.50;99.90
1411;DHT22;700;51.906;8.404;2023-03-01T07:40:42;8.10;99.90
1411;DHT22;700;51.906;8.404;2023-03-01T07:45:42;9.00;96.00
1411;DHT22;700;51.906;8.404;2023-03-01T07:50:43;9.50;93.40
1411;DHT22;700;51.906;8.404;2023-03-01T07:55:44;10.70;90.60
1411;DHT22;700;51.906;8.404;2023-03-01T08:00:47;11.60;84.80
1411;DHT22;700;51.906;8.404;2023-03-01T08:05:47;12.20;77.80
1411;DHT22;700;51.906;8.404;2023-03-01T08:10:48;12.90;73.40
1411;DHT22;700;51.906;8.404;2023-03-01T08:15:51;15.70;65.50
1411;DHT22;700;51.906;8.404;2023-03-01T08:20:52;16.00;51.70
1411;DHT22;700;51.906;8.404;2023-03-01T08:25:53;17.30;51.40
1411;DHT22;700;51.906;8.404;2023-03-01T08:30:56;15.60;49.90
1411;DHT22;700;51.906;8.404;2023-03-01T08:36:08;15.10;48.80
1411;DHT22;700;51.906;8.404;2023-03-01T08:41:09;15.10;47.70
1411;DHT22;700;51.906;8.404;2023-03-01T08:46:12;16.70;47.10
1411;DHT22;700;51.906;8.404;2023-03-01T08:51:16;18.70;46.30
1411;DHT22;700;51.906;8.404;2023-03-01T08:56:19;19.80;43.10
1411;DHT22;700;51.906;8.404;2023-03-01T09:01:22;21.20;42.10
1411;DHT22;700;51.906;8.404;2023-03-01T09:06:23;19.60;37.90
1411;DHT22;700;51.906;8.404;2023-03-01T09:11:27;21.10;37.70
1411;DHT22;700;51.906;8.404;2023-03-01T09:16:28;21.60;36.00
1411;DHT22;700;51.906;8.404;2023-03-01T09:21:32;24.30;36.10
1411;DHT22;700;51.906;8.404;2023-03-01T09:26:38;26.20;30.90
1411;DHT22;700;51.906;8.404;2023-03-01T09:31:38;29.10;27.30
1411;DHT22;700;51.906;8.404;2023-03-01T09:36:39;31.80;26.70
1411;DHT22;700;51.906;8.404;2023-03-01T09:46:50;33.80;23.80
1411;DHT22;700;51.906;8.404;2023-03-01T09:57:20;34.70;22.10
1411;DHT22;700;51.906;8.404;2023-03-01T10:12:53;33.70;20.50
1411;DHT22;700;51.906;8.404;2023-03-01T10:18:06;34.30;20.80
1411;DHT22;700;51.906;8.404;2023-03-01T10:23:12;31.50;21.30
1411;DHT22;700;51.906;8.404;2023-03-01T10:33:38;34.20;20.60
1411;DHT22;700;51.906;8.404;2023-03-01T10:38:56;29.30;22.00
1411;DHT22;700;51.906;8.404;2023-03-01T10:43:58;30.10;22.70
1411;DHT22;700;51.906;8.404;2023-03-01T10:49:22;29.70;22.30
1411;DHT22;700;51.906;8.404;2023-03-01T10:54:30;28.10;23.40
1411;DHT22;700;51.906;8.404;2023-03-01T10:59:37;31.20;22.60
1411;DHT22;700;51.906;8.404;2023-03-01T11:04:39;27.90;22.20
1411;DHT22;700;51.906;8.404;2023-03-01T11:09:39;30.90;22.70
1411;DHT22;700;51.906;8.404;2023-03-01T11:14:51;30.70;21.90
1411;DHT22;700;51.906;8.404;2023-03-01T11:25:14;29.90;22.50
1411;DHT22;700;51.906;8.404;2023-03-01T11:35:27;26.20;24.50
1411;DHT22;700;51.906;8.404;2023-03-01T11:40:35;28.70;24.40
1411;DHT22;700;51.906;8.404;2023-03-01T11:46:27;29.90;22.70
1411;DHT22;700;51.906;8.404;2023-03-01T11:51:13;27.30;23.20
1411;DHT22;700;51.906;8.404;2023-03-01T12:34:02;23.70;25.70
1411;DHT22;700;51.906;8.404;2023-03-01T12:44:37;26.00;24.50
1411;DHT22;700;51.906;8.404;2023-03-01T12:49:59;23.30;22.50
1411;DHT22;700;51.906;8.404;2023-03-01T12:55:19;23.10;25.90
1411;DHT22;700;51.906;8.404;2023-03-01T13:05:37;24.50;24.20
1411;DHT22;700;51.906;8.404;2023-03-01T13:10:47;25.90;24.00
1411;DHT22;700;51.906;8.404;2023-03-01T13:15:52;26.70;22.30
1411;DHT22;700;51.906;8.404;2023-03-01T13:20:58;27.60;23.70
1411;DHT22;700;51.906;8.404;2023-03-01T13:26:07;28.00;22.50
1411;DHT22;700;51.906;8.404;2023-03-01T13:46:44;29.50;20.80
1411;DHT22;700;51.906;8.404;2023-03-01T13:51:49;30.80;21.20
1411;DHT22;700;51.906;8.404;2023-03-01T13:56:54;29.60;19.80
1411;DHT22;700;51.906;8.404;2023-03-01T14:01:59;28.60;21.00
1411;DHT22;700;51.906;8.404;2023-03-01T14:07:20;30.00;21.60
1411;DHT22;700;51.906;8.404;2023-03-01T14:13:12;30.60;21.30
1411;DHT22;700;51.906;8.404;2023-03-01T14:18:17;30.30;21.10
1411;DHT22;700;51.906;8.404;2023-03-01T14:23:23;30.40;21.00
1411;DHT22;700;51.906;8.404;2023-03-01T14:28:27;27.70;20.80
1411;DHT22;700;51.906;8.404;2023-03-01T14:33:33;24.00;23.30
1411;DHT22;700;51.906;8.404;2023-03-01T14:38:38;20.60;24.60
1411;DHT22;700;51.906;8.404;2023-03-01T14:43:43;19.40;26.50
1411;DHT22;700;51.906;8.404;2023-03-01T14:48:45;18.20;27.90
1411;DHT22;700;51.906;8.404;2023-03-01T14:53:48;17.00;28.30
1411;DHT22;700;51.906;8.404;2023-03-01T14:58:58;15.70;28.90
1411;DHT22;700;51.906;8.404;2023-03-01T15:04:04;14.90;29.00
1411;DHT22;700;51.906;8.404;2023-03-01T15:09:06;15.00;30.80
1411;DHT22;700;51.906;8.404;2023-03-01T15:14:40;14.70;30.90
1411;DHT22;700;51.906;8.404;2023-03-01T15:19:41;14.40;31.60
1411;DHT22;700;51.906;8.404;2023-03-01T15:24:48;14.20;31.70
1411;DHT22;700;51.906;8.404;2023-03-01T15:29:54;13.60;32.30
1411;DHT22;700;51.906;8.404;2023-03-01T15:34:57;13.30;33.00
1411;DHT22;700;51.906;8.404;2023-03-01T15:39:58;13.10;35.00
1411;DHT22;700;51.906;8.404;2023-03-01T15:45:22;12.60;34.50
1411;DHT22;700;51.906;8.404;2023-03-01T15:50:32;11.80;35.10
1411;DHT22;700;51.906;8.404;2023-03-01T15:55:33;12.00;36.40
1411;DHT22;700;51.906;8.404;2023-03-01T16:00:34;12.20;37.50
1411;DHT22;700;51.906;8.404;2023-03-01T16:05:35;12.00;38.10
1411;DHT22;700;51.906;8.404;2023-03-01T16:10:36;12.00;39.20
1411;DHT22;700;51.906;8.404;2023-03-01T16:15:38;11.80;38.50
1411;DHT22;700;51.906;8.404;2023-03-01T16:20:42;11.50;40.30
1411;DHT22;700;51.906;8.404;2023-03-01T16:25:43;11.20;40.80
1411;DHT22;700;51.906;8.404;2023-03-01T16:30:46;11.10;41.80
1411;DHT22;700;51.906;8.404;2023-03-01T16:35:51;10.90;42.10
1411;DHT22;700;51.906;8.404;2023-03-01T16:40:53;10.70;42.80
1411;DHT22;700;51.906;8.404;2023-03-01T16:45:54;10.50;42.90
1411;DHT22;700;51.906;8.404;2023-03-01T16:50:59;10.00;43.30
1411;DHT22;700;51.906;8.404;2023-03-01T16:56:04;9.40;45.50
1411;DHT22;700;51.906;8.404;2023-03-01T17:06:13;9.00;46.90
1411;DHT22;700;51.906;8.404;2023-03-01T17:11:19;8.60;47.80
1411;DHT22;700;51.906;8.404;2023-03-01T17:16:20;8.30;48.60
1411;DHT22;700;51.906;8.404;2023-03-01T17:21:21;7.90;49.20
1411;DHT22;700;51.906;8.404;2023-03-01T17:26:22;7.40;51.10
1411;DHT22;700;51.906;8.404;2023-03-01T17:31:22;7.70;51.40
1411;DHT22;700;51.906;8.404;2023-03-01T17:36:25;7.30;51.80
1411;DHT22;700;51.906;8.404;2023-03-01T17:41:28;7.10;53.10
1411;DHT22;700;51.906;8.404;2023-03-01T17:46:31;7.00;54.50
1411;DHT22;700;51.906;8.404;2023-03-01T17:51:32;6.90;55.10
1411;DHT22;700;51.906;8.404;2023-03-01T17:56:35;7.00;56.60
1411;DHT22;700;51.906;8.404;2023-03-01T18:01:41;6.90;57.20
1411;DHT22;700;51.906;8.404;2023-03-01T18:06:42;6.90;58.40
1411;DHT22;700;51.906;8.404;2023-03-01T18:11:47;6.90;59.70
1411;DHT22;700;51.906;8.404;2023-03-01T18:16:47;6.90;60.70
1411;DHT22;700;51.906;8.404;2023-03-01T18:21:50;7.10;61.90
1411;DHT22;700;51.906;8.404;2023-03-01T18:26:51;6.90;63.20
1411;DHT22;700;51.906;8.404;2023-03-01T18:31:53;7.00;64.60
1411;DHT22;700;51.906;8.404;2023-03-01T18:36:54;7.00;65.60
1411;DHT22;700;51.906;8.404;2023-03-01T18:41:58;6.80;67.10
1411;DHT22;700;51.906;8.404;2023-03-01T18:46:58;6.80;68.10
1411;DHT22;700;51.906;8.404;2023-03-01T18:51:59;6.70;69.20
1411;DHT22;700;51.906;8.404;2023-03-01T18:57:00;6.50;70.30
1411;DHT22;700;51.906;8.404;2023-03-01T19:02:00;6.50;71.50
1411;DHT22;700;51.906;8.404;2023-03-01T19:07:01;6.30;73.20
1411;DHT22;700;51.906;8.404;2023-03-01T19:12:04;6.30;74.20
1411;DHT22;700;51.906;8.404;2023-03-01T19:17:08;6.00;77.10
1411;DHT22;700;51.906;8.404;2023-03-01T19:22:08;5.80;80.40
1411;DHT22;700;51.906;8.404;2023-03-01T19:27:11;6.00;81.00
1411;DHT22;700;51.906;8.404;2023-03-01T19:32:14;5.80;82.80
1411;DHT22;700;51.906;8.404;2023-03-01T19:37:15;5.80;83.90
1411;DHT22;700;51.906;8.404;2023-03-01T19:42:16;6.00;85.30
1411;DHT22;700;51.906;8.404;2023-03-01T19:47:19;6.20;86.10
1411;DHT22;700;51.906;8.404;2023-03-01T19:52:22;6.20;85.30
1411;DHT22;700;51.906;8.404;2023-03-01T19:57:22;6.20;86.50
1411;DHT22;700;51.906;8.404;2023-03-01T20:02:25;6.40;86.80
1411;DHT22;700;51.906;8.404;2023-03-01T20:07:26;6.30;86.70
1411;DHT22;700;51.906;8.404;2023-03-01T20:12:27;6.30;86.80
1411;DHT22;700;51.906;8.404;2023-03-01T20:17:27;6.40;86.70
1411;DHT22;700;51.906;8.404;2023-03-01T20:22:30;6.30;88.20
1411;DHT22;700;51.906;8.404;2023-03-01T20:27:31;6.00;87.80
1411;DHT22;700;51.906;8.404;2023-03-01T20:32:32;5.80;88.60
1411;DHT22;700;51.906;8.404;2023-03-01T20:37:33;5.90;89.00
1411;DHT22;700;51.906;8.404;2023-03-01T20:42:34;6.00;90.50
1411;DHT22;700;51.906;8.404;2023-03-01T20:47:34;5.90;90.60
1411;DHT22;700;51.906;8.404;2023-03-01T20:52:35;5.80;90.70
1411;DHT22;700;51.906;8.404;2023-03-01T20:57:38;5.60;91.10
1411;DHT22;700;51.906;8.404;2023-03-01T21:02:41;5.50;91.70
1411;DHT22;700;51.906;8.404;2023-03-01T21:07:43;5.50;92.80
1411;DHT22;700;51.906;8.404;2023-03-01T21:12:44;5.60;93.60
1411;DHT22;700;51.906;8.404;2023-03-01T21:17:45;5.80;93.10
1411;DHT22;700;51.906;8.404;2023-03-01T21:22:47;5.50;93.40
1411;DHT22;700;51.906;8.404;2023-03-01T21:27:52;5.50;94.10
1411;DHT22;700;51.906;8.404;2023-03-01T21:32:57;5.20;94.10
1411;DHT22;700;51.906;8.404;2023-03-01T21:37:58;5.40;94.30
1411;DHT22;700;51.906;8.404;2023-03-01T21:42:59;5.40;94.30
1411;DHT22;700;51.906;8.404;2023-03-01T21:47:59;5.20;94.90
1411;DHT22;700;51.906;8.404;2023-03-01T21:53:00;5.20;95.10
1411;DHT22;700;51.906;8.404;2023-03-01T21:58:06;5.20;94.80
1411;DHT22;700;51.906;8.404;2023-03-01T22:03:10;4.90;95.10
1411;DHT22;700;51.906;8.404;2023-03-01T22:08:13;4.90;95.70
1411;DHT22;700;51.906;8.404;2023-03-01T22:13:17;4.70;96.10
1411;DHT22;700;51.906;8.404;2023-03-01T22:18:20;4.70;96.80
1411;DHT22;700;51.906;8.404;2023-03-01T22:23:23;4.60;97.20
1411;DHT22;700;51.906;8.404;2023-03-01T22:28:24;4.40;97.20
1411;DHT22;700;51.906;8.404;2023-03-01T22:33:27;4.60;97.20
1411;DHT22;700;51.906;8.404;2023-03-01T22:38:30;4.60;97.00
1411;DHT22;700;51.906;8.404;2023-03-01T22:43:33;4.40;97.80
1411;DHT22;700;51.906;8.404;2023-03-01T22:48:34;4.40;98.40
1411;DHT22;700;51.906;8.404;2023-03-01T22:53:35;4.40;98.60
1411;DHT22;700;51.906;8.404;2023-03-01T22:58:37;4.40;98.40
1411;DHT22;700;51.906;8.404;2023-03-01T23:03:38;4.60;98.30
1411;DHT22;700;51.906;8.404;2023-03-01T23:08:39;4.70;97.90
1411;DHT22;700;51.906;8.404;2023-03-01T23:13:42;4.90;97.90
1411;DHT22;700;51.906;8.404;2023-03-01T23:18:43;5.00;97.10
1411;DHT22;700;51.906;8.404;2023-03-01T23:23:47;5.10;97.10
1411;DHT22;700;51.906;8.404;2023-03-01T23:28:50;5.00;96.60
1411;DHT22;700;51.906;8.404;2023-03-01T23:33:51;5.00;96.80
1411;DHT22;700;51.906;8.404;2023-03-01T23:38:55;4.90;96.80
1411;DHT22;700;51.906;8.404;2023-03-01T23:43:58;5.00;96.70
1411;DHT22;700;51.906;8.404;2023-03-01T23:48:59;5.10;96.20
1411;DHT22;700;51.906;8.404;2023-03-01T23:54:01;4.90;95.80
1411;DHT22;700;51.906;8.404;2023-03-01T23:59:07;4.90;96.20
